Time;durP1;ratioP1;P1;durP2;ratioP2;P2;SDS_P1;SDS_P2;PMS_P1;PMS_P2;Temp;Humidity;BMP_temperature;BMP_pressure;BME280_temperature;BME280_humidity;BME280_pressure;Samples;Min_cycle;Max_cycle;Signal;HPM_P1;HPM_P2
2023/12/20 00:00:11;;;;;;;0.40;0.40;;;5.80;99.90;;;;;;5055258;28;20453;-82
2023/12/20 00:02:38;;;;;;;0.40;0.40;;;5.80;99.90;;;;;;5055135;28;20947;-82
2023/12/20 00:05:06;;;;;;;2.60;0.90;;;5.80;99.90;;;;;;5055327;28;20453;-82
2023/12/20 00:07:32;;;;;;;1.70;0.50;;;5.80;99.90;;;;;;5054723;28;20532;-82
2023/12/20 00:09:59;;;;;;;0.37;0.30;;;5.80;99.90;;;;;;5055378;28;20450;-83
2023/12/20 00:12:26;;;;;;;0.40;0.40;;;5.80;99.90;;;;;;5055788;28;20469;-82
2023/12/20 00:14:54;;;;;;;0.30;0.30;;;5.90;99.90;;;;;;5059255;28;20865;-82
2023/12/20 00:17:21;;;;;;;0.80;0.40;;;5.80;99.90;;;;;;5058644;28;20468;-82
2023/12/20 00:19:47;;;;;;;0.37;0.30;;;5.80;99.90;;;;;;5059256;28;20448;-83
2023/12/20 00:22:14;;;;;;;0.40;0.40;;;5.80;99.90;;;;;;5058935;28;20923;-82
2023/12/20 00:24:41;;;;;;;0.33;0.33;;;5.80;99.90;;;;;;5059004;28;20429;-82
2023/12/20 00:27:07;;;;;;;0.40;0.40;;;5.70;99.90;;;;;;5059151;28;20458;-82
2023/12/20 00:29:34;;;;;;;0.40;0.30;;;5.80;99.90;;;;;;5062605;28;20958;-82
2023/12/20 00:32:02;;;;;;;0.63;0.40;;;5.60;99.90;;;;;;5068824;28;20814;-82
2023/12/20 00:34:29;;;;;;;0.30;0.30;;;5.60;99.90;;;;;;5057628;28;20449;-82
2023/12/20 00:36:55;;;;;;;0.30;0.30;;;5.50;99.90;;;;;;5057123;28;20465;-83
2023/12/20 00:39:22;;;;;;;1.70;0.40;;;5.60;99.90;;;;;;5057166;28;20488;-81
2023/12/20 00:41:49;;;;;;;0.40;0.33;;;5.50;99.90;;;;;;5057383;28;20446;-83
2023/12/20 00:44:15;;;;;;;0.30;0.30;;;5.40;99.90;;;;;;5057600;28;20442;-82
2023/12/20 00:46:42;;;;;;;0.70;0.40;;;5.30;99.90;;;;;;5057538;28;20823;-82
2023/12/20 00:49:10;;;;;;;0.30;0.30;;;5.30;99.90;;;;;;5058542;28;20453;-83
2023/12/20 00:51:37;;;;;;;0.57;0.40;;;5.40;99.90;;;;;;5057585;28;20448;-83
2023/12/20 00:54:03;;;;;;;0.50;0.50;;;5.30;99.90;;;;;;5058004;28;20485;-83
2023/12/20 00:56:30;;;;;;;0.30;0.30;;;5.20;99.90;;;;;;5058095;28;20938;-84
2023/12/20 00:58:57;;;;;;;0.40;0.40;;;5.20;99.90;;;;;;5058077;28;20449;-83
2023/12/20 01:01:23;;;;;;;0.40;0.40;;;5.30;99.90;;;;;;5057668;28;20441;-81
2023/12/20 01:03:51;;;;;;;0.40;0.40;;;5.30;99.90;;;;;;5057862;28;20448;-82
2023/12/20 01:06:19;;;;;;;0.70;0.70;;;5.30;99.90;;;;;;5057888;28;20571;-81
2023/12/20 01:08:46;;;;;;;0.33;0.33;;;5.30;99.90;;;;;;5057951;28;20430;-81
2023/12/20 01:11:12;;;;;;;0.37;0.30;;;5.30;99.90;;;;;;5057809;28;20812;-82
2023/12/20 01:13:39;;;;;;;0.30;0.30;;;5.30;99.90;;;;;;5058597;28;20488;-81
2023/12/20 01:16:06;;;;;;;0.30;0.30;;;5.20;99.90;;;;;;5058311;28;20454;-83
2023/12/20 01:18:33;;;;;;;0.30;0.30;;;5.20;99.90;;;;;;5058872;28;20811;-83
2023/12/20 01:21:03;;;;;;;0.40;0.30;;;5.10;99.90;;;;;;5058871;28;20444;-83
2023/12/20 01:23:31;;;;;;;0.30;0.30;;;5.10;99.90;;;;;;5057837;28;20799;-82
2023/12/20 01:25:59;;;;;;;0.40;0.30;;;5.10;99.90;;;;;;5058168;28;20942;-82
2023/12/20 01:28:26;;;;;;;0.40;0.30;;;5.10;99.90;;;;;;5058764;28;20462;-81
2023/12/20 01:30:53;;;;;;;0.40;0.30;;;5.10;99.90;;;;;;5058169;28;20458;-81
2023/12/20 01:33:20;;;;;;;0.70;0.40;;;5.00;99.90;;;;;;5058406;28;21079;-81
2023/12/20 01:35:46;;;;;;;0.30;0.30;;;5.00;99.90;;;;;;5058509;28;20457;-82
2023/12/20 01:38:13;;;;;;;0.40;0.40;;;5.00;99.90;;;;;;5057656;28;20461;-81
2023/12/20 01:40:41;;;;;;;0.30;0.30;;;5.10;99.90;;;;;;5058493;28;20973;-83
2023/12/20 01:43:09;;;;;;;0.40;0.40;;;5.10;99.90;;;;;;5058133;28;20438;-82
2023/12/20 01:45:36;;;;;;;0.40;0.40;;;5.10;99.90;;;;;;5058652;28;20446;-83
2023/12/20 01:48:04;;;;;;;0.30;0.30;;;5.20;99.90;;;;;;5058210;28;20450;-80
2023/12/20 01:50:32;;;;;;;0.30;0.30;;;5.10;99.90;;;;;;5058526;28;20438;-81
2023/12/20 01:53:01;;;;;;;0.30;0.30;;;5.20;99.90;;;;;;5058320;28;20492;-82
2023/12/20 01:55:30;;;;;;;0.40;0.30;;;5.20;99.90;;;;;;5058462;28;20453;-81
2023/12/20 01:57:59;;;;;;;0.67;0.37;;;5.10;99.90;;;;;;5058517;28;20477;-82
2023/12/20 02:00:28;;;;;;;0.30;0.20;;;5.10;99.90;;;;;;5058363;28;20438;-81
2023/12/20 02:02:55;;;;;;;0.60;0.60;;;5.10;99.90;;;;;;5058223;28;20446;-80
2023/12/20 02:05:22;;;;;;;1.23;0.33;;;5.10;99.90;;;;;;5057758;28;20472;-81
2023/12/20 02:07:49;;;;;;;1.07;0.30;;;5.10;99.90;;;;;;5057707;28;20488;-81
2023/12/20 02:10:17;;;;;;;0.30;0.30;;;5.10;99.90;;;;;;5057980;28;20441;-83
2023/12/20 02:12:43;;;;;;;0.30;0.23;;;5.10;99.90;;;;;;5057860;28;20808;-83
2023/12/20 02:15:12;;;;;;;0.37;0.30;;;5.20;99.90;;;;;;5057840;28;20449;-82
2023/12/20 02:17:40;;;;;;;0.40;0.30;;;5.20;99.90;;;;;;5057603;28;20461;-82
2023/12/20 02:20:09;;;;;;;0.30;0.23;;;5.10;99.90;;;;;;5057408;28;20943;-82
2023/12/20 02:22:37;;;;;;;0.40;0.40;;;5.20;99.90;;;;;;5058088;28;20480;-81
2023/12/20 02:25:04;;;;;;;0.30;0.30;;;5.10;99.90;;;;;;5057486;28;20815;-82
2023/12/20 02:27:31;;;;;;;0.40;0.33;;;5.10;99.90;;;;;;5057519;28;20473;-81
2023/12/20 02:29:58;;;;;;;0.30;0.30;;;5.10;99.90;;;;;;5057997;28;20430;-82
2023/12/20 02:32:26;;;;;;;0.73;0.30;;;5.10;99.90;;;;;;5057357;28;20446;-81
2023/12/20 02:34:53;;;;;;;0.30;0.30;;;5.10;99.90;;;;;;5057722;28;20528;-80
2023/12/20 02:37:19;;;;;;;0.40;0.30;;;5.10;99.90;;;;;;5057699;28;20470;-81
2023/12/20 02:39:48;;;;;;;0.50;0.30;;;5.20;99.90;;;;;;5057142;28;20449;-80
2023/12/20 02:42:14;;;;;;;0.30;0.30;;;5.20;99.90;;;;;;5057508;28;20453;-81
2023/12/20 02:44:41;;;;;;;0.37;0.30;;;5.20;99.90;;;;;;5065584;28;20441;-80
2023/12/20 02:47:08;;;;;;;0.57;0.30;;;5.10;99.90;;;;;;5054346;28;20481;-81
2023/12/20 02:49:34;;;;;;;0.30;0.30;;;5.20;99.90;;;;;;5054571;28;20506;-83
2023/12/20 02:52:01;;;;;;;0.30;0.27;;;5.10;99.90;;;;;;5054724;28;20453;-82
2023/12/20 02:54:28;;;;;;;0.30;0.30;;;5.10;99.90;;;;;;5055148;28;20477;-82
2023/12/20 02:56:56;;;;;;;0.30;0.30;;;5.10;99.90;;;;;;5055458;28;20982;-82
2023/12/20 02:59:22;;;;;;;0.30;0.30;;;5.10;99.90;;;;;;5055505;28;20813;-82
2023/12/20 03:01:49;;;;;;;0.30;0.30;;;5.10;99.90;;;;;;5055397;28;20446;-83
2023/12/20 03:04:16;;;;;;;0.50;0.30;;;5.10;99.90;;;;;;5055228;28;20446;-82
2023/12/20 03:06:42;;;;;;;0.37;0.30;;;5.10;99.90;;;;;;5055241;28;20478;-82
2023/12/20 03:09:09;;;;;;;0.30;0.30;;;5.10;99.90;;;;;;5055605;28;20413;-81
2023/12/20 03:11:36;;;;;;;0.30;0.20;;;5.10;99.90;;;;;;5056215;28;20450;-81
2023/12/20 03:14:04;;;;;;;0.30;0.20;;;5.10;99.90;;;;;;5056649;28;20830;-82
2023/12/20 03:16:32;;;;;;;0.30;0.30;;;5.10;99.90;;;;;;5056021;28;20471;-83
2023/12/20 03:18:59;;;;;;;0.30;0.20;;;5.10;99.90;;;;;;5056510;28;20784;-82
2023/12/20 03:21:26;;;;;;;0.30;0.30;;;5.10;99.90;;;;;;5055746;28;20449;-82
2023/12/20 03:23:53;;;;;;;0.30;0.20;;;5.10;99.90;;;;;;5055344;28;20792;-82
2023/12/20 03:26:19;;;;;;;0.30;0.30;;;5.20;99.90;;;;;;5055707;28;20476;-82
2023/12/20 03:28:46;;;;;;;0.30;0.30;;;5.10;99.90;;;;;;5056025;28;20499;-81
2023/12/20 03:31:14;;;;;;;0.30;0.30;;;5.20;99.90;;;;;;5055979;28;20453;-83
2023/12/20 03:33:41;;;;;;;0.30;0.20;;;5.20;99.90;;;;;;5055275;28;20489;-82
2023/12/20 03:36:08;;;;;;;0.30;0.20;;;5.20;99.90;;;;;;5055958;28;20519;-82
2023/12/20 03:38:35;;;;;;;0.30;0.30;;;5.20;99.90;;;;;;5056195;28;20974;-83
2023/12/20 03:41:01;;;;;;;0.30;0.20;;;5.20;99.90;;;;;;5056502;28;20472;-82
2023/12/20 03:43:28;;;;;;;0.30;0.30;;;5.20;99.90;;;;;;5056204;28;20441;-83
2023/12/20 03:45:55;;;;;;;0.30;0.30;;;5.20;99.90;;;;;;5056176;28;20445;-83
2023/12/20 03:48:23;;;;;;;0.30;0.30;;;5.20;99.90;;;;;;5055959;28;20997;-82
2023/12/20 03:50:49;;;;;;;0.30;0.20;;;5.20;99.90;;;;;;5056027;28;20450;-81
2023/12/20 03:53:16;;;;;;;0.70;0.30;;;5.20;99.90;;;;;;5055998;28;20516;-81
2023/12/20 03:55:43;;;;;;;1.13;0.30;;;5.20;99.90;;;;;;5056065;28;20445;-82
2023/12/20 03:58:10;;;;;;;0.30;0.23;;;5.20;99.90;;;;;;5056384;28;20458;-82
2023/12/20 04:00:37;;;;;;;0.30;0.20;;;5.10;99.90;;;;;;5055938;28;20807;-81
2023/12/20 04:03:04;;;;;;;0.30;0.20;;;5.10;99.90;;;;;;5056362;28;20434;-81
2023/12/20 04:05:31;;;;;;;0.30;0.20;;;5.10;99.90;;;;;;5056577;28;20453;-81
2023/12/20 04:07:58;;;;;;;0.30;0.30;;;5.10;99.90;;;;;;5056268;28;20540;-82
2023/12/20 04:10:24;;;;;;;0.30;0.23;;;5.10;99.90;;;;;;5056347;28;20438;-81
2023/12/20 04:12:51;;;;;;;0.30;0.20;;;5.20;99.90;;;;;;5056540;28;20460;-82
2023/12/20 04:15:18;;;;;;;0.30;0.30;;;5.10;99.90;;;;;;5055984;28;20866;-81
2023/12/20 04:17:44;;;;;;;0.30;0.30;;;5.10;99.90;;;;;;5055885;28;20466;-83
2023/12/20 04:20:11;;;;;;;0.30;0.20;;;5.10;99.90;;;;;;5056031;28;20438;-82
2023/12/20 04:22:39;;;;;;;0.40;0.30;;;5.10;99.90;;;;;;5056172;28;20445;-81
2023/12/20 04:25:07;;;;;;;0.30;0.20;;;5.00;99.90;;;;;;5056507;28;20506;-82
2023/12/20 04:27:33;;;;;;;0.30;0.20;;;5.00;99.90;;;;;;5055873;28;20907;-81
2023/12/20 04:30:00;;;;;;;0.30;0.20;;;5.00;99.90;;;;;;5055714;28;20446;-84
2023/12/20 04:32:27;;;;;;;0.30;0.20;;;5.00;99.90;;;;;;5056384;28;20461;-81
2023/12/20 04:34:54;;;;;;;0.30;0.30;;;5.00;99.90;;;;;;5055403;28;20465;-82
2023/12/20 04:37:20;;;;;;;0.30;0.30;;;5.00;99.90;;;;;;5055594;28;20469;-81
2023/12/20 04:39:48;;;;;;;0.30;0.20;;;5.00;99.90;;;;;;5055832;28;20450;-81
2023/12/20 04:42:15;;;;;;;0.30;0.20;;;5.00;99.90;;;;;;5055852;28;20819;-81
2023/12/20 04:44:43;;;;;;;0.30;0.30;;;4.90;99.90;;;;;;5055639;28;20452;-81
2023/12/20 04:47:10;;;;;;;0.60;0.30;;;4.90;99.90;;;;;;5055496;28;20473;-81
2023/12/20 04:49:37;;;;;;;0.30;0.20;;;4.90;99.90;;;;;;5055516;28;20449;-82
2023/12/20 04:52:04;;;;;;;0.30;0.30;;;4.90;99.90;;;;;;5055664;28;20449;-81
2023/12/20 04:54:30;;;;;;;0.30;0.20;;;5.00;99.90;;;;;;5056963;28;21017;-82
2023/12/20 04:56:58;;;;;;;0.30;0.30;;;5.00;99.90;;;;;;5065614;28;20509;-82
2023/12/20 04:59:25;;;;;;;0.30;0.20;;;5.00;99.90;;;;;;5056991;28;20434;-82
2023/12/20 05:01:52;;;;;;;0.30;0.20;;;5.00;99.90;;;;;;5056894;28;20445;-83
2023/12/20 05:04:18;;;;;;;0.30;0.20;;;5.00;99.90;;;;;;5057060;28;20449;-81
2023/12/20 05:06:45;;;;;;;0.30;0.20;;;5.00;99.90;;;;;;5056528;28;20480;-82
2023/12/20 05:09:12;;;;;;;0.40;0.40;;;5.00;99.90;;;;;;5057303;28;20978;-82
2023/12/20 05:11:39;;;;;;;0.30;0.30;;;5.00;99.90;;;;;;5057201;28;20450;-80
2023/12/20 05:14:07;;;;;;;0.50;0.30;;;5.00;99.90;;;;;;5057022;28;20512;-82
2023/12/20 05:16:33;;;;;;;0.30;0.20;;;5.00;99.90;;;;;;5057326;28;20469;-81
2023/12/20 05:19:02;;;;;;;0.30;0.30;;;5.00;99.90;;;;;;5057421;28;20446;-82
2023/12/20 05:21:28;;;;;;;0.37;0.37;;;5.00;99.90;;;;;;5057593;28;20454;-83
2023/12/20 05:23:55;;;;;;;0.30;0.20;;;5.00;99.90;;;;;;5057862;28;20445;-81
2023/12/20 05:26:22;;;;;;;0.30;0.30;;;5.00;99.90;;;;;;5057472;28;20943;-82
2023/12/20 05:28:48;;;;;;;0.30;0.20;;;5.00;99.90;;;;;;5057524;28;20935;-82
2023/12/20 05:31:16;;;;;;;0.90;0.40;;;5.00;99.90;;;;;;5057770;28;20468;-82
2023/12/20 05:33:43;;;;;;;0.30;0.20;;;4.90;99.90;;;;;;5057475;28;20430;-81
2023/12/20 05:36:13;;;;;;;0.30;0.27;;;5.00;99.90;;;;;;5057670;28;20453;-81
2023/12/20 05:38:40;;;;;;;0.30;0.30;;;5.00;99.90;;;;;;5058044;28;20520;-82
2023/12/20 05:41:06;;;;;;;0.30;0.30;;;5.00;99.90;;;;;;5057660;28;20939;-83
2023/12/20 05:43:33;;;;;;;0.30;0.30;;;4.90;99.90;;;;;;5058393;28;21027;-82
2023/12/20 05:46:00;;;;;;;0.30;0.20;;;4.90;99.90;;;;;;5057704;28;20446;-83
2023/12/20 05:48:28;;;;;;;0.30;0.30;;;5.00;99.90;;;;;;5057410;28;20465;-81
2023/12/20 05:50:55;;;;;;;0.30;0.20;;;5.00;99.90;;;;;;5057654;28;20445;-81
2023/12/20 05:53:21;;;;;;;0.30;0.30;;;5.00;99.90;;;;;;5058117;28;20453;-82
2023/12/20 05:55:48;;;;;;;0.30;0.30;;;5.00;99.90;;;;;;5057671;28;20485;-81
2023/12/20 05:58:15;;;;;;;0.30;0.20;;;5.00;99.90;;;;;;5058799;28;20497;-82
2023/12/20 06:00:41;;;;;;;0.30;0.30;;;5.00;99.90;;;;;;5058625;28;20461;-83
2023/12/20 06:03:08;;;;;;;0.30;0.30;;;5.00;99.90;;;;;;5057583;28;20414;-83
2023/12/20 06:05:36;;;;;;;0.30;0.20;;;5.00;99.90;;;;;;5057921;28;20850;-81
2023/12/20 06:08:03;;;;;;;0.30;0.20;;;5.00;99.90;;;;;;5057590;28;20489;-81
2023/12/20 06:10:30;;;;;;;0.30;0.20;;;5.00;99.90;;;;;;5057281;28;20450;-82
2023/12/20 06:12:58;;;;;;;0.30;0.30;;;5.00;99.90;;;;;;5057445;28;20457;-81
2023/12/20 06:15:25;;;;;;;0.30;0.30;;;5.00;99.90;;;;;;5057382;28;20481;-81
2023/12/20 06:17:51;;;;;;;0.30;0.30;;;5.00;99.90;;;;;;5057701;28;20461;-81
2023/12/20 06:20:18;;;;;;;0.30;0.30;;;5.00;99.90;;;;;;5058217;28;20806;-81
2023/12/20 06:22:46;;;;;;;0.40;0.30;;;5.00;99.90;;;;;;5057187;28;20438;-81
2023/12/20 06:25:13;;;;;;;0.30;0.30;;;5.00;99.90;;;;;;5058087;28;20442;-81
2023/12/20 06:27:41;;;;;;;0.30;0.20;;;5.00;99.90;;;;;;5057530;28;20457;-81
2023/12/20 06:30:09;;;;;;;0.30;0.20;;;5.00;99.90;;;;;;5057559;28;20437;-83
2023/12/20 06:32:35;;;;;;;0.60;0.30;;;5.00;99.90;;;;;;5057750;28;20442;-82
2023/12/20 06:35:02;;;;;;;0.80;0.50;;;5.00;99.90;;;;;;5057247;28;20481;-82
2023/12/20 06:37:29;;;;;;;0.40;0.30;;;5.10;99.90;;;;;;5057447;28;20450;-82
2023/12/20 06:39:57;;;;;;;1.00;0.40;;;5.10;99.90;;;;;;5056951;28;20456;-81
2023/12/20 06:42:24;;;;;;;0.30;0.30;;;5.10;99.90;;;;;;5056891;28;20490;-82
2023/12/20 06:44:51;;;;;;;2.73;0.90;;;5.10;99.90;;;;;;5057775;28;20461;-80
2023/12/20 06:47:17;;;;;;;0.30;0.30;;;5.00;99.90;;;;;;5057194;28;20516;-81
2023/12/20 06:49:44;;;;;;;0.30;0.30;;;5.00;99.90;;;;;;5057308;28;20485;-81
2023/12/20 06:52:11;;;;;;;0.30;0.30;;;5.00;99.90;;;;;;5057174;28;20441;-80
2023/12/20 06:54:37;;;;;;;0.30;0.30;;;5.10;99.90;;;;;;5056845;28;20486;-81
2023/12/20 06:57:06;;;;;;;0.40;0.30;;;5.00;99.90;;;;;;5057161;28;20465;-81
2023/12/20 06:59:32;;;;;;;0.30;0.30;;;5.00;99.90;;;;;;5057148;28;20437;-81
2023/12/20 07:01:59;;;;;;;0.40;0.40;;;5.00;99.90;;;;;;5056434;28;20445;-84
2023/12/20 07:04:26;;;;;;;0.30;0.30;;;5.00;99.90;;;;;;5056736;28;20461;-82
2023/12/20 07:06:56;;;;;;;0.30;0.30;;;5.00;99.90;;;;;;5059163;28;20485;-81
2023/12/20 07:09:23;;;;;;;0.60;0.50;;;5.00;99.90;;;;;;5064449;28;20441;-82
2023/12/20 07:11:50;;;;;;;0.30;0.30;;;5.10;99.90;;;;;;5053701;28;20437;-81
2023/12/20 07:14:18;;;;;;;0.40;0.30;;;5.10;99.90;;;;;;5054253;28;20448;-82
2023/12/20 07:16:44;;;;;;;0.30;0.30;;;5.00;99.90;;;;;;5054472;28;20854;-82
2023/12/20 07:19:11;;;;;;;0.40;0.40;;;5.00;99.90;;;;;;5054596;28;20814;-81
2023/12/20 07:21:38;;;;;;;0.30;0.30;;;5.00;99.90;;;;;;5053737;28;20446;-80
2023/12/20 07:24:05;;;;;;;0.40;0.40;;;5.00;99.90;;;;;;5054444;28;20430;-81
2023/12/20 07:26:31;;;;;;;0.30;0.30;;;5.00;99.90;;;;;;5054221;28;20946;-83
2023/12/20 07:28:59;;;;;;;0.40;0.30;;;5.10;99.90;;;;;;5054696;28;20453;-80
2023/12/20 07:31:27;;;;;;;0.30;0.20;;;5.10;99.90;;;;;;5054727;28;20946;-82
2023/12/20 07:33:53;;;;;;;0.40;0.30;;;5.10;99.90;;;;;;5054694;28;20449;-82
2023/12/20 07:36:21;;;;;;;0.30;0.30;;;5.10;99.90;;;;;;5054703;28;20492;-82
2023/12/20 07:38:48;;;;;;;0.30;0.30;;;5.10;99.90;;;;;;5054720;28;20452;-82
2023/12/20 07:41:15;;;;;;;0.30;0.30;;;5.20;99.90;;;;;;5054700;28;20529;-81
2023/12/20 07:43:42;;;;;;;0.37;0.33;;;5.20;99.90;;;;;;5054646;28;20441;-82
2023/12/20 07:46:09;;;;;;;0.40;0.40;;;5.20;99.90;;;;;;5055045;28;20449;-83
2023/12/20 07:48:37;;;;;;;0.87;0.40;;;5.20;99.90;;;;;;5054394;28;20458;-82
2023/12/20 07:51:05;;;;;;;0.50;0.50;;;5.20;99.90;;;;;;5055161;28;20442;-82
2023/12/20 07:53:33;;;;;;;0.30;0.20;;;5.30;99.90;;;;;;5055209;28;20445;-81
2023/12/20 07:55:59;;;;;;;0.40;0.40;;;5.30;99.90;;;;;;5054738;28;20842;-81
2023/12/20 07:58:26;;;;;;;0.40;0.30;;;5.30;99.90;;;;;;5055121;28;20469;-82
2023/12/20 08:00:53;;;;;;;0.50;0.40;;;5.30;99.90;;;;;;5055342;28;20861;-82
2023/12/20 08:03:19;;;;;;;0.70;0.40;;;5.40;99.90;;;;;;5054541;28;20433;-82
2023/12/20 08:05:47;;;;;;;0.40;0.40;;;5.40;99.90;;;;;;5054673;28;20442;-82
2023/12/20 08:08:14;;;;;;;0.30;0.30;;;5.40;99.90;;;;;;5054566;28;20489;-82
2023/12/20 08:10:41;;;;;;;0.80;0.80;;;5.50;99.90;;;;;;5055399;28;20448;-83
2023/12/20 08:13:08;;;;;;;0.40;0.30;;;5.50;99.90;;;;;;5055255;28;20437;-81
2023/12/20 08:15:35;;;;;;;0.30;0.30;;;5.50;99.90;;;;;;5055357;28;20485;-81
2023/12/20 08:18:01;;;;;;;0.60;0.43;;;5.50;99.90;;;;;;5055558;28;20473;-81
2023/12/20 08:20:28;;;;;;;0.50;0.40;;;5.60;99.90;;;;;;5055860;28;20821;-83
2023/12/20 08:22:56;;;;;;;0.40;0.40;;;5.50;99.90;;;;;;5055592;28;20450;-83
2023/12/20 08:25:23;;;;;;;0.40;0.40;;;5.50;99.90;;;;;;5056788;28;20438;-83
2023/12/20 08:27:49;;;;;;;0.80;0.50;;;5.50;99.90;;;;;;5055873;28;20820;-83
2023/12/20 08:30:17;;;;;;;0.63;0.40;;;5.50;99.90;;;;;;5056156;28;20445;-84
2023/12/20 08:32:44;;;;;;;0.40;0.40;;;5.50;99.90;;;;;;5055655;28;20849;-82
2023/12/20 08:35:10;;;;;;;0.87;0.40;;;5.60;99.90;;;;;;5060048;28;20481;-82
2023/12/20 08:37:37;;;;;;;0.40;0.40;;;5.50;99.90;;;;;;5059787;28;20453;-82
2023/12/20 08:40:07;;;;;;;1.00;0.50;;;5.50;99.90;;;;;;5059691;28;20919;-84
2023/12/20 08:42:33;;;;;;;0.63;0.60;;;5.50;99.90;;;;;;5059500;28;20437;-81
2023/12/20 08:45:00;;;;;;;0.67;0.47;;;5.50;99.90;;;;;;5059910;28;20804;-82
2023/12/20 08:47:27;;;;;;;0.30;0.30;;;5.40;99.90;;;;;;5060141;28;20472;-82
2023/12/20 08:49:56;;;;;;;0.40;0.40;;;5.40;99.90;;;;;;5059498;28;20449;-83
2023/12/20 08:52:23;;;;;;;0.60;0.40;;;5.40;99.90;;;;;;5059677;28;20868;-83
2023/12/20 08:54:51;;;;;;;1.60;0.97;;;5.30;99.90;;;;;;5059779;28;20446;-83
2023/12/20 08:57:20;;;;;;;0.50;0.40;;;5.20;99.90;;;;;;5059569;28;20850;-82
2023/12/20 08:59:47;;;;;;;0.93;0.57;;;5.20;99.90;;;;;;5059987;28;20446;-82
2023/12/20 09:02:14;;;;;;;0.50;0.50;;;5.10;99.90;;;;;;5059564;28;20438;-83
2023/12/20 09:04:41;;;;;;;2.20;0.40;;;5.00;99.90;;;;;;5059292;28;20438;-82
2023/12/20 09:07:08;;;;;;;1.13;0.40;;;4.90;99.90;;;;;;5058924;28;20476;-83
2023/12/20 09:09:34;;;;;;;0.40;0.30;;;4.80;99.90;;;;;;5059898;28;20927;-82
2023/12/20 09:12:01;;;;;;;0.40;0.30;;;4.70;99.90;;;;;;5059126;28;20450;-81
2023/12/20 09:14:29;;;;;;;3.17;0.87;;;4.70;99.90;;;;;;5059323;28;20446;-82
2023/12/20 09:16:56;;;;;;;0.40;0.30;;;4.70;99.90;;;;;;5059430;28;20489;-82
2023/12/20 09:19:23;;;;;;;0.40;0.40;;;4.60;99.90;;;;;;5068690;28;20444;-80
2023/12/20 09:21:50;;;;;;;1.33;0.70;;;4.60;99.90;;;;;;5059813;28;20445;-81
2023/12/20 09:24:16;;;;;;;0.50;0.50;;;4.70;99.90;;;;;;5056986;28;20962;-82
2023/12/20 09:26:44;;;;;;;0.93;0.70;;;4.60;99.90;;;;;;5057416;28;20465;-82
2023/12/20 09:29:15;;;;;;;0.33;0.30;;;4.60;99.90;;;;;;5057523;28;20787;-82
2023/12/20 09:31:43;;;;;;;0.70;0.50;;;4.50;99.90;;;;;;5057253;28;20434;-83
2023/12/20 09:34:10;;;;;;;0.40;0.30;;;4.50;99.90;;;;;;5057495;28;20449;-82
2023/12/20 09:36:38;;;;;;;0.30;0.30;;;4.50;99.90;;;;;;5057419;28;20498;-82
2023/12/20 09:39:05;;;;;;;0.40;0.40;;;4.50;99.90;;;;;;5057899;28;20814;-82
2023/12/20 09:41:34;;;;;;;0.60;0.50;;;4.60;99.90;;;;;;5057279;28;20441;-81
2023/12/20 09:44:03;;;;;;;0.67;0.60;;;4.70;99.90;;;;;;5057431;28;20441;-82
2023/12/20 09:46:33;;;;;;;0.63;0.47;;;4.90;99.90;;;;;;5056467;28;20923;-83
2023/12/20 09:49:02;;;;;;;0.93;0.87;;;5.30;99.90;;;;;;5057635;28;20434;-82
2023/12/20 09:51:30;;;;;;;0.57;0.40;;;6.20;99.90;;;;;;5056748;28;20445;-83
2023/12/20 09:53:57;;;;;;;0.47;0.37;;;7.20;99.90;;;;;;5055701;28;20442;-82
2023/12/20 09:56:25;;;;;;;0.40;0.40;;;8.60;99.90;;;;;;5055536;28;20485;-81
2023/12/20 09:58:54;;;;;;;0.40;0.40;;;10.40;99.90;;;;;;5055465;28;20452;-86
2023/12/20 10:01:21;;;;;;;0.90;0.53;;;11.70;99.90;;;;;;5055381;28;20536;-82
2023/12/20 10:03:48;;;;;;;0.40;0.40;;;12.50;99.90;;;;;;5055386;28;20445;-82
2023/12/20 10:06:16;;;;;;;0.40;0.40;;;13.20;99.90;;;;;;5055399;28;20446;-82
2023/12/20 10:08:43;;;;;;;0.40;0.40;;;13.60;99.90;;;;;;5055604;28;20770;-80
2023/12/20 10:11:10;;;;;;;0.50;0.40;;;13.90;99.90;;;;;;5054983;28;20437;-80
2023/12/20 10:13:41;;;;;;;0.40;0.30;;;13.60;99.90;;;;;;5054882;28;20507;-80
2023/12/20 10:16:08;;;;;;;0.77;0.40;;;12.70;99.90;;;;;;5054844;28;20473;-80
2023/12/20 10:18:35;;;;;;;0.40;0.30;;;11.70;99.90;;;;;;5055130;28;20807;-80
2023/12/20 10:21:03;;;;;;;0.60;0.53;;;10.90;99.90;;;;;;5054712;28;20446;-80
2023/12/20 10:23:31;;;;;;;0.37;0.33;;;9.90;99.90;;;;;;5054986;28;20533;-81
2023/12/20 10:25:58;;;;;;;0.53;0.50;;;9.30;99.90;;;;;;5054773;28;20438;-81
2023/12/20 10:28:27;;;;;;;0.97;0.50;;;8.80;99.90;;;;;;5054711;28;20466;-80
2023/12/20 10:30:56;;;;;;;5.60;0.50;;;8.40;99.90;;;;;;5054791;28;20434;-81
2023/12/20 10:33:26;;;;;;;0.37;0.30;;;8.00;99.90;;;;;;5054443;28;20438;-81
2023/12/20 10:35:53;;;;;;;0.40;0.30;;;7.70;99.90;;;;;;5054223;28;20536;-81
2023/12/20 10:38:20;;;;;;;0.40;0.40;;;7.50;99.90;;;;;;5054242;28;20465;-81
2023/12/20 10:40:48;;;;;;;4.67;0.63;;;7.30;99.90;;;;;;5054178;28;20450;-81
2023/12/20 10:43:16;;;;;;;0.40;0.30;;;7.20;99.90;;;;;;5054474;28;20441;-83
2023/12/20 10:45:43;;;;;;;0.40;0.30;;;7.10;99.90;;;;;;5055234;28;20452;-83
2023/12/20 10:48:11;;;;;;;0.60;0.60;;;7.00;99.90;;;;;;5054913;28;20461;-82
2023/12/20 10:50:39;;;;;;;0.70;0.70;;;6.90;99.90;;;;;;5055154;28;20461;-82
2023/12/20 10:53:07;;;;;;;0.67;0.50;;;6.80;99.90;;;;;;5055268;28;20454;-82
2023/12/20 10:55:34;;;;;;;0.30;0.30;;;6.80;99.90;;;;;;5055032;28;20958;-82
2023/12/20 10:58:07;;;;;;;0.43;0.43;;;6.90;99.90;;;;;;5053422;28;20469;-82
2023/12/20 11:00:39;;;;;;;0.57;0.50;;;6.80;99.90;;;;;;5054765;28;20430;-82
2023/12/20 11:03:09;;;;;;;0.33;0.30;;;6.80;99.90;;;;;;5055174;28;20445;-82
2023/12/20 11:05:43;;;;;;;10.40;0.53;;;6.90;99.90;;;;;;5054766;28;20442;-82
2023/12/20 11:08:15;;;;;;;0.40;0.40;;;6.80;99.90;;;;;;5054643;28;20489;-82
2023/12/20 11:10:50;;;;;;;0.50;0.50;;;6.80;99.90;;;;;;5055169;28;20433;-82
2023/12/20 11:13:23;;;;;;;0.60;0.50;;;6.80;99.90;;;;;;5054839;28;20470;-82
2023/12/20 11:15:50;;;;;;;2.70;0.77;;;6.80;99.90;;;;;;5056117;28;20472;-85
2023/12/20 11:18:17;;;;;;;0.40;0.30;;;6.90;99.90;;;;;;5055623;28;20465;-83
2023/12/20 11:20:43;;;;;;;0.40;0.30;;;6.90;99.90;;;;;;5055146;28;20434;-83
2023/12/20 11:23:10;;;;;;;1.90;0.40;;;6.90;99.90;;;;;;5054897;28;20446;-83
2023/12/20 11:25:48;;;;;;;0.60;0.40;;;7.00;99.90;;;;;;5054738;28;20453;-83
2023/12/20 11:28:15;;;;;;;0.40;0.40;;;7.00;99.90;;;;;;5055687;28;20479;-84
2023/12/20 11:30:47;;;;;;;0.53;0.40;;;7.00;99.90;;;;;;5068558;28;20457;-81
2023/12/20 11:33:14;;;;;;;1.20;0.60;;;7.00;99.90;;;;;;5056209;28;20433;-84
2023/12/20 11:35:41;;;;;;;0.50;0.50;;;6.90;99.90;;;;;;5053895;28;20444;-84
2023/12/20 11:38:09;;;;;;;0.40;0.40;;;6.80;99.90;;;;;;5053895;28;20462;-83
2023/12/20 11:40:37;;;;;;;2.07;0.50;;;6.70;99.90;;;;;;5054048;28;20430;-84
2023/12/20 11:43:03;;;;;;;0.60;0.37;;;6.60;99.90;;;;;;5053854;28;20445;-83
2023/12/20 11:45:30;;;;;;;0.30;0.30;;;6.50;99.90;;;;;;5053916;28;20848;-84
2023/12/20 11:47:59;;;;;;;0.40;0.40;;;6.50;99.90;;;;;;5053805;28;20849;-84
2023/12/20 11:50:26;;;;;;;1.33;0.50;;;6.50;99.90;;;;;;5054618;28;20441;-82
2023/12/20 11:52:55;;;;;;;2.40;0.50;;;6.60;99.90;;;;;;5053693;28;20932;-83
2023/12/20 11:55:21;;;;;;;1.57;0.37;;;6.60;99.90;;;;;;5054428;28;20516;-83
2023/12/20 11:57:48;;;;;;;0.60;0.53;;;6.50;99.90;;;;;;5053806;28;20481;-83
2023/12/20 12:00:16;;;;;;;3.20;0.63;;;6.50;99.90;;;;;;5054808;28;20457;-84
2023/12/20 12:02:42;;;;;;;0.80;0.63;;;6.40;99.90;;;;;;5054010;28;20446;-84
2023/12/20 12:05:10;;;;;;;0.60;0.60;;;6.30;99.90;;;;;;5054982;28;20445;-82
2023/12/20 12:07:37;;;;;;;0.40;0.30;;;6.30;99.90;;;;;;5054995;28;20998;-82
2023/12/20 12:10:04;;;;;;;2.10;0.40;;;6.30;99.90;;;;;;5059059;28;20442;-81
2023/12/20 12:12:32;;;;;;;0.40;0.30;;;6.30;99.90;;;;;;5059580;28;20815;-82
2023/12/20 12:14:59;;;;;;;0.40;0.40;;;6.30;99.90;;;;;;5059235;28;20879;-82
2023/12/20 12:17:27;;;;;;;0.30;0.30;;;6.40;99.90;;;;;;5058986;28;20489;-82
2023/12/20 12:20:04;;;;;;;0.50;0.50;;;6.30;99.90;;;;;;5059418;28;20445;-81
2023/12/20 12:22:32;;;;;;;1.80;0.40;;;6.40;99.90;;;;;;5059368;28;20846;-81
2023/12/20 12:25:09;;;;;;;1.07;0.53;;;6.40;99.90;;;;;;5058457;28;20442;-82
2023/12/20 12:27:38;;;;;;;19.37;0.70;;;6.50;99.90;;;;;;5058686;28;20830;-81
2023/12/20 12:30:07;;;;;;;0.40;0.37;;;6.40;99.90;;;;;;5059005;28;20541;-81
2023/12/20 12:32:34;;;;;;;0.70;0.40;;;6.50;99.90;;;;;;5058526;28;20456;-82
2023/12/20 12:35:00;;;;;;;0.30;0.30;;;6.50;99.90;;;;;;5058600;28;20445;-82
2023/12/20 12:37:27;;;;;;;0.40;0.40;;;6.60;99.90;;;;;;5058209;28;20489;-82
2023/12/20 12:39:56;;;;;;;1.17;0.33;;;6.60;99.90;;;;;;5058585;28;20948;-81
2023/12/20 12:42:25;;;;;;;0.77;0.40;;;6.60;99.90;;;;;;5059372;28;20460;-82
2023/12/20 12:44:52;;;;;;;4.03;1.10;;;6.60;99.90;;;;;;5058255;28;20525;-82
2023/12/20 12:47:19;;;;;;;0.83;0.57;;;6.60;99.90;;;;;;5058327;28;20473;-83
2023/12/20 12:49:46;;;;;;;7.50;0.73;;;6.60;99.90;;;;;;5058098;28;20503;-82
2023/12/20 12:52:12;;;;;;;0.43;0.43;;;6.60;99.90;;;;;;5058252;28;20454;-82
2023/12/20 12:54:39;;;;;;;0.50;0.50;;;6.60;99.90;;;;;;5059013;28;20446;-82
2023/12/20 12:57:07;;;;;;;0.40;0.30;;;6.60;99.90;;;;;;5059112;28;20494;-82